sensor_id;sensor_type;location;lat;lon;timestamp;temperature;humidity
72326;DHT22;60278;47.980;18.780;2022-08-25T00:02:22;19.51;99.99
72326;DHT22;60278;47.980;18.780;2022-08-25T00:05:53;19.38;99.99
72326;DHT22;60278;47.980;18.780;2022-08-25T00:09:25;19.38;99.99
72326;DHT22;60278;47.980;18.780;2022-08-25T00:12:57;19.41;99.99
72326;DHT22;60278;47.980;18.780;2022-08-25T00:16:29;19.39;99.99
72326;DHT22;60278;47.980;18.780;2022-08-25T00:20:04;19.39;99.99
72326;DHT22;60278;47.980;18.780;2022-08-25T00:23:36;19.38;99.99
72326;DHT22;60278;47.980;18.780;2022-08-25T00:27:07;19.36;99.99
72326;DHT22;60278;47.980;18.780;2022-08-25T00:30:42;19.32;99.99
72326;DHT22;60278;47.980;18.780;2022-08-25T00:34:17;19.25;99.99
72326;DHT22;60278;47.980;18.780;2022-08-25T00:37:48;19.34;99.99
72326;DHT22;60278;47.980;18.780;2022-08-25T00:41:22;19.35;99.99
72326;DHT22;60278;47.980;18.780;2022-08-25T00:44:53;19.42;99.99
72326;DHT22;60278;47.980;18.780;2022-08-25T00:48:24;19.45;99.92
72326;DHT22;60278;47.980;18.780;2022-08-25T00:52:00;19.51;99.59
72326;DHT22;60278;47.980;18.780;2022-08-25T00:55:35;19.55;99.52
72326;DHT22;60278;47.980;18.780;2022-08-25T00:59:07;19.52;99.74
72326;DHT22;60278;47.980;18.780;2022-08-25T01:02:39;19.45;99.96
72326;DHT22;60278;47.980;18.780;2022-08-25T01:06:10;19.39;99.99
72326;DHT22;60278;47.980;18.780;2022-08-25T01:09:43;19.31;99.99
72326;DHT22;60278;47.980;18.780;2022-08-25T01:13:29;19.42;99.76
72326;DHT22;60278;47.980;18.780;2022-08-25T01:17:02;19.44;99.85
72326;DHT22;60278;47.980;18.780;2022-08-25T01:20:34;19.31;99.99
72326;DHT22;60278;47.980;18.780;2022-08-25T01:24:05;19.35;99.99
72326;DHT22;60278;47.980;18.780;2022-08-25T01:27:36;19.32;99.99
72326;DHT22;60278;47.980;18.780;2022-08-25T01:31:07;19.30;99.99
72326;DHT22;60278;47.980;18.780;2022-08-25T01:34:41;19.36;99.99
72326;DHT22;60278;47.980;18.780;2022-08-25T01:38:12;19.44;99.99
72326;DHT22;60278;47.980;18.780;2022-08-25T01:45:34;19.51;99.19
72326;DHT22;60278;47.980;18.780;2022-08-25T01:49:05;19.51;99.26
72326;DHT22;60278;47.980;18.780;2022-08-25T01:56:35;19.44;99.99
72326;DHT22;60278;47.980;18.780;2022-08-25T02:00:08;19.52;99.52
72326;DHT22;60278;47.980;18.780;2022-08-25T02:03:45;19.55;99.29
72326;DHT22;60278;47.980;18.780;2022-08-25T02:07:17;19.47;99.44
72326;DHT22;60278;47.980;18.780;2022-08-25T02:10:49;19.44;99.61
72326;DHT22;60278;47.980;18.780;2022-08-25T02:14:20;19.41;99.57
72326;DHT22;60278;47.980;18.780;2022-08-25T02:17:51;19.31;99.71
72326;DHT22;60278;47.980;18.780;2022-08-25T02:21:23;19.18;99.99
72326;DHT22;60278;47.980;18.780;2022-08-25T02:24:54;19.11;99.99
72326;DHT22;60278;47.980;18.780;2022-08-25T02:28:25;19.21;99.99
72326;DHT22;60278;47.980;18.780;2022-08-25T02:31:56;19.06;99.99
72326;DHT22;60278;47.980;18.780;2022-08-25T02:35:27;19.10;99.92
72326;DHT22;60278;47.980;18.780;2022-08-25T02:38:59;19.04;99.99
72326;DHT22;60278;47.980;18.780;2022-08-25T02:42:30;18.94;99.99
72326;DHT22;60278;47.980;18.780;2022-08-25T02:46:01;18.94;99.99
72326;DHT22;60278;47.980;18.780;2022-08-25T02:49:32;18.94;99.99
72326;DHT22;60278;47.980;18.780;2022-08-25T02:53:04;18.90;99.99
72326;DHT22;60278;47.980;18.780;2022-08-25T02:56:35;18.99;99.99
72326;DHT22;60278;47.980;18.780;2022-08-25T03:00:08;18.94;99.98
72326;DHT22;60278;47.980;18.780;2022-08-25T03:03:42;18.83;99.99
72326;DHT22;60278;47.980;18.780;2022-08-25T03:07:13;18.76;99.99
72326;DHT22;60278;47.980;18.780;2022-08-25T03:10:45;18.83;99.99
72326;DHT22;60278;47.980;18.780;2022-08-25T03:14:16;18.90;99.99
72326;DHT22;60278;47.980;18.780;2022-08-25T03:17:47;19.00;99.99
72326;DHT22;60278;47.980;18.780;2022-08-25T03:21:20;19.10;99.95
72326;DHT22;60278;47.980;18.780;2022-08-25T03:24:51;19.20;99.69
72326;DHT22;60278;47.980;18.780;2022-08-25T03:28:42;19.14;99.55
72326;DHT22;60278;47.980;18.780;2022-08-25T03:32:14;19.15;99.53
72326;DHT22;60278;47.980;18.780;2022-08-25T03:35:45;19.11;99.67
72326;DHT22;60278;47.980;18.780;2022-08-25T03:39:18;19.04;99.99
72326;DHT22;60278;47.980;18.780;2022-08-25T03:42:49;19.04;99.99
72326;DHT22;60278;47.980;18.780;2022-08-25T03:46:26;19.03;99.99
72326;DHT22;60278;47.980;18.780;2022-08-25T03:49:57;19.04;99.99
72326;DHT22;60278;47.980;18.780;2022-08-25T03:53:28;19.06;99.84
72326;DHT22;60278;47.980;18.780;2022-08-25T03:56:59;19.06;99.99
72326;DHT22;60278;47.980;18.780;2022-08-25T04:00:30;19.08;99.97
72326;DHT22;60278;47.980;18.780;2022-08-25T04:04:02;19.07;99.99
72326;DHT22;60278;47.980;18.780;2022-08-25T04:07:33;19.04;99.99
72326;DHT22;60278;47.980;18.780;2022-08-25T04:11:13;19.11;99.86
72326;DHT22;60278;47.980;18.780;2022-08-25T04:14:44;18.94;99.99
72326;DHT22;60278;47.980;18.780;2022-08-25T04:18:15;18.79;99.99
72326;DHT22;60278;47.980;18.780;2022-08-25T04:21:46;18.79;99.99
72326;DHT22;60278;47.980;18.780;2022-08-25T04:25:18;18.77;99.99
72326;DHT22;60278;47.980;18.780;2022-08-25T04:28:49;18.86;99.99
72326;DHT22;60278;47.980;18.780;2022-08-25T04:32:20;18.87;99.99
72326;DHT22;60278;47.980;18.780;2022-08-25T04:35:52;18.87;99.99
72326;DHT22;60278;47.980;18.780;2022-08-25T04:39:23;18.91;99.99
72326;DHT22;60278;47.980;18.780;2022-08-25T04:42:54;18.90;99.99
72326;DHT22;60278;47.980;18.780;2022-08-25T04:46:28;18.96;99.99
72326;DHT22;60278;47.980;18.780;2022-08-25T04:50:00;18.91;99.99
72326;DHT22;60278;47.980;18.780;2022-08-25T04:53:33;18.91;99.99
72326;DHT22;60278;47.980;18.780;2022-08-25T04:57:04;18.90;99.99
72326;DHT22;60278;47.980;18.780;2022-08-25T05:00:35;18.87;99.99
72326;DHT22;60278;47.980;18.780;2022-08-25T05:04:08;18.89;99.99
72326;DHT22;60278;47.980;18.780;2022-08-25T05:07:39;18.99;99.99
72326;DHT22;60278;47.980;18.780;2022-08-25T05:11:12;19.03;99.99
72326;DHT22;60278;47.980;18.780;2022-08-25T05:14:44;19.38;99.34
72326;DHT22;60278;47.980;18.780;2022-08-25T05:18:16;19.30;99.43
72326;DHT22;60278;47.980;18.780;2022-08-25T05:21:48;19.35;99.99
72326;DHT22;60278;47.980;18.780;2022-08-25T05:25:19;19.34;99.99
72326;DHT22;60278;47.980;18.780;2022-08-25T05:28:52;19.27;99.55
72326;DHT22;60278;47.980;18.780;2022-08-25T05:32:23;19.20;99.99
72326;DHT22;60278;47.980;18.780;2022-08-25T05:35:54;19.38;99.79
72326;DHT22;60278;47.980;18.780;2022-08-25T05:39:25;19.47;99.99
72326;DHT22;60278;47.980;18.780;2022-08-25T05:42:57;19.47;99.90
72326;DHT22;60278;47.980;18.780;2022-08-25T05:46:28;19.58;99.62
72326;DHT22;60278;47.980;18.780;2022-08-25T05:49:59;19.52;99.84
72326;DHT22;60278;47.980;18.780;2022-08-25T05:53:31;19.66;99.73
72326;DHT22;60278;47.980;18.780;2022-08-25T05:57:02;19.63;99.70
72326;DHT22;60278;47.980;18.780;2022-08-25T06:00:33;19.69;99.08
72326;DHT22;60278;47.980;18.780;2022-08-25T06:04:04;19.78;99.65
72326;DHT22;60278;47.980;18.780;2022-08-25T06:07:36;19.75;99.22
72326;DHT22;60278;47.980;18.780;2022-08-25T06:11:07;19.70;99.38
72326;DHT22;60278;47.980;18.780;2022-08-25T06:14:38;19.96;98.79
72326;DHT22;60278;47.980;18.780;2022-08-25T06:18:09;20.30;97.55
72326;DHT22;60278;47.980;18.780;2022-08-25T06:21:40;20.19;98.90
72326;DHT22;60278;47.980;18.780;2022-08-25T06:25:13;20.03;98.52
72326;DHT22;60278;47.980;18.780;2022-08-25T06:28:44;20.12;99.07
72326;DHT22;60278;47.980;18.780;2022-08-25T06:32:16;20.05;99.12
72326;DHT22;60278;47.980;18.780;2022-08-25T06:35:47;20.10;98.93
72326;DHT22;60278;47.980;18.780;2022-08-25T06:39:19;20.12;98.26
72326;DHT22;60278;47.980;18.780;2022-08-25T06:42:50;20.51;97.91
72326;DHT22;60278;47.980;18.780;2022-08-25T06:46:23;20.67;97.29
72326;DHT22;60278;47.980;18.780;2022-08-25T06:49:56;20.74;96.64
72326;DHT22;60278;47.980;18.780;2022-08-25T06:53:28;20.79;97.81
72326;DHT22;60278;47.980;18.780;2022-08-25T06:57:00;20.99;96.71
72326;DHT22;60278;47.980;18.780;2022-08-25T07:00:32;20.98;96.44
72326;DHT22;60278;47.980;18.780;2022-08-25T07:04:04;21.10;97.09
72326;DHT22;60278;47.980;18.780;2022-08-25T07:07:36;21.57;94.26
72326;DHT22;60278;47.980;18.780;2022-08-25T07:11:09;22.77;91.66
72326;DHT22;60278;47.980;18.780;2022-08-25T07:14:41;23.58;88.76
72326;DHT22;60278;47.980;18.780;2022-08-25T07:18:12;22.65;91.36
72326;DHT22;60278;47.980;18.780;2022-08-25T07:21:43;23.18;89.51
72326;DHT22;60278;47.980;18.780;2022-08-25T07:25:16;24.01;87.21
72326;DHT22;60278;47.980;18.780;2022-08-25T07:28:48;24.91;85.79
72326;DHT22;60278;47.980;18.780;2022-08-25T07:32:19;25.38;84.64
72326;DHT22;60278;47.980;18.780;2022-08-25T07:35:50;25.19;83.13
72326;DHT22;60278;47.980;18.780;2022-08-25T07:39:22;25.42;83.13
72326;DHT22;60278;47.980;18.780;2022-08-25T07:42:55;25.94;80.52
72326;DHT22;60278;47.980;18.780;2022-08-25T07:46:27;26.56;78.83
72326;DHT22;60278;47.980;18.780;2022-08-25T07:49:58;25.93;80.61
72326;DHT22;60278;47.980;18.780;2022-08-25T07:53:29;25.39;81.62
72326;DHT22;60278;47.980;18.780;2022-08-25T07:57:02;24.61;83.56
72326;DHT22;60278;47.980;18.780;2022-08-25T08:00:33;24.50;84.45
72326;DHT22;60278;47.980;18.780;2022-08-25T08:04:06;24.78;84.87
72326;DHT22;60278;47.980;18.780;2022-08-25T08:07:38;25.49;83.11
72326;DHT22;60278;47.980;18.780;2022-08-25T08:11:25;25.22;83.84
72326;DHT22;60278;47.980;18.780;2022-08-25T08:14:57;25.67;81.98
72326;DHT22;60278;47.980;18.780;2022-08-25T08:18:28;26.16;79.56
72326;DHT22;60278;47.980;18.780;2022-08-25T08:22:00;27.26;75.61
72326;DHT22;60278;47.980;18.780;2022-08-25T08:25:31;27.83;76.04
72326;DHT22;60278;47.980;18.780;2022-08-25T08:29:02;27.22;76.25
72326;DHT22;60278;47.980;18.780;2022-08-25T08:32:34;27.26;74.01
72326;DHT22;60278;47.980;18.780;2022-08-25T08:36:08;27.40;74.25
72326;DHT22;60278;47.980;18.780;2022-08-25T08:39:41;26.99;75.51
72326;DHT22;60278;47.980;18.780;2022-08-25T08:43:15;26.84;78.56
72326;DHT22;60278;47.980;18.780;2022-08-25T08:50:57;26.12;79.94
72326;DHT22;60278;47.980;18.780;2022-08-25T08:54:36;26.03;81.72
72326;DHT22;60278;47.980;18.780;2022-08-25T08:58:20;26.04;79.77
72326;DHT22;60278;47.980;18.780;2022-08-25T09:01:55;26.43;78.75
72326;DHT22;60278;47.980;18.780;2022-08-25T09:05:36;25.90;79.66
72326;DHT22;60278;47.980;18.780;2022-08-25T09:09:30;25.66;79.99
72326;DHT22;60278;47.980;18.780;2022-08-25T09:13:07;26.10;80.66
72326;DHT22;60278;47.980;18.780;2022-08-25T09:17:03;25.96;79.35
72326;DHT22;60278;47.980;18.780;2022-08-25T09:20:58;26.37;78.30
72326;DHT22;60278;47.980;18.780;2022-08-25T09:31:59;26.51;77.90
72326;DHT22;60278;47.980;18.780;2022-08-25T09:35:39;26.34;77.01
72326;DHT22;60278;47.980;18.780;2022-08-25T09:39:11;25.96;77.51
72326;DHT22;60278;47.980;18.780;2022-08-25T09:42:48;26.49;74.04
72326;DHT22;60278;47.980;18.780;2022-08-25T09:46:26;26.72;71.12
72326;DHT22;60278;47.980;18.780;2022-08-25T09:50:03;26.76;73.22
72326;DHT22;60278;47.980;18.780;2022-08-25T09:53:34;26.92;73.29
72326;DHT22;60278;47.980;18.780;2022-08-25T09:57:07;27.20;73.09
72326;DHT22;60278;47.980;18.780;2022-08-25T10:00:38;27.20;73.43
72326;DHT22;60278;47.980;18.780;2022-08-25T10:04:09;27.46;73.40
72326;DHT22;60278;47.980;18.780;2022-08-25T10:07:49;27.37;73.55
72326;DHT22;60278;47.980;18.780;2022-08-25T10:11:42;27.39;73.01
72326;DHT22;60278;47.980;18.780;2022-08-25T10:15:36;27.58;75.17
72326;DHT22;60278;47.980;18.780;2022-08-25T10:23:09;28.11;71.44
72326;DHT22;60278;47.980;18.780;2022-08-25T10:26:49;28.53;70.84
72326;DHT22;60278;47.980;18.780;2022-08-25T10:30:28;29.11;69.59
72326;DHT22;60278;47.980;18.780;2022-08-25T10:42:00;27.57;72.12
72326;DHT22;60278;47.980;18.780;2022-08-25T10:45:42;28.21;71.55
72326;DHT22;60278;47.980;18.780;2022-08-25T10:49:20;28.16;69.94
72326;DHT22;60278;47.980;18.780;2022-08-25T10:53:10;27.78;70.67
72326;DHT22;60278;47.980;18.780;2022-08-25T10:56:56;29.48;67.69
72326;DHT22;60278;47.980;18.780;2022-08-25T11:00:35;29.89;63.52
72326;DHT22;60278;47.980;18.780;2022-08-25T11:04:27;30.10;63.87
72326;DHT22;60278;47.980;18.780;2022-08-25T11:08:10;29.50;67.89
72326;DHT22;60278;47.980;18.780;2022-08-25T11:11:50;29.57;62.88
72326;DHT22;60278;47.980;18.780;2022-08-25T11:15:34;30.19;64.49
72326;DHT22;60278;47.980;18.780;2022-08-25T11:19:36;31.38;60.35
72326;DHT22;60278;47.980;18.780;2022-08-25T11:23:18;30.98;61.84
72326;DHT22;60278;47.980;18.780;2022-08-25T11:26:54;31.25;61.81
72326;DHT22;60278;47.980;18.780;2022-08-25T11:30:26;29.71;62.62
72326;DHT22;60278;47.980;18.780;2022-08-25T11:33:58;29.01;66.47
72326;DHT22;60278;47.980;18.780;2022-08-25T11:37:30;29.27;65.44
72326;DHT22;60278;47.980;18.780;2022-08-25T11:45:25;28.97;63.86
72326;DHT22;60278;47.980;18.780;2022-08-25T11:52:50;30.36;62.84
72326;DHT22;60278;47.980;18.780;2022-08-25T11:56:31;29.92;61.72
72326;DHT22;60278;47.980;18.780;2022-08-25T12:07:19;30.23;63.66
72326;DHT22;60278;47.980;18.780;2022-08-25T12:11:04;30.01;63.33
72326;DHT22;60278;47.980;18.780;2022-08-25T12:14:41;30.40;63.34
72326;DHT22;60278;47.980;18.780;2022-08-25T12:25:36;30.65;61.84
72326;DHT22;60278;47.980;18.780;2022-08-25T12:36:54;30.53;61.64
72326;DHT22;60278;47.980;18.780;2022-08-25T12:40:57;30.24;62.76
72326;DHT22;60278;47.980;18.780;2022-08-25T12:44:42;30.37;60.41
72326;DHT22;60278;47.980;18.780;2022-08-25T12:52:15;30.12;62.77
72326;DHT22;60278;47.980;18.780;2022-08-25T12:55:55;30.05;60.67
72326;DHT22;60278;47.980;18.780;2022-08-25T13:03:36;30.56;62.05
72326;DHT22;60278;47.980;18.780;2022-08-25T13:07:24;30.60;61.46
72326;DHT22;60278;47.980;18.780;2022-08-25T13:11:14;29.86;61.46
72326;DHT22;60278;47.980;18.780;2022-08-25T13:14:53;29.81;60.38
72326;DHT22;60278;47.980;18.780;2022-08-25T13:18:28;30.13;60.29
72326;DHT22;60278;47.980;18.780;2022-08-25T13:22:14;29.86;60.61
72326;DHT22;60278;47.980;18.780;2022-08-25T13:25:50;30.14;60.45
72326;DHT22;60278;47.980;18.780;2022-08-25T13:29:24;29.93;60.42
72326;DHT22;60278;47.980;18.780;2022-08-25T13:32:56;29.93;60.56
72326;DHT22;60278;47.980;18.780;2022-08-25T13:36:30;30.08;61.79
72326;DHT22;60278;47.980;18.780;2022-08-25T13:40:24;30.19;61.62
72326;DHT22;60278;47.980;18.780;2022-08-25T13:43:56;30.06;60.45
72326;DHT22;60278;47.980;18.780;2022-08-25T13:47:36;30.23;60.69
72326;DHT22;60278;47.980;18.780;2022-08-25T13:51:18;29.98;59.83
72326;DHT22;60278;47.980;18.780;2022-08-25T13:54:50;30.05;60.05
72326;DHT22;60278;47.980;18.780;2022-08-25T13:58:28;30.02;61.18
72326;DHT22;60278;47.980;18.780;2022-08-25T14:02:00;30.06;61.91
72326;DHT22;60278;47.980;18.780;2022-08-25T14:05:40;30.03;60.80
72326;DHT22;60278;47.980;18.780;2022-08-25T14:09:15;29.78;59.81
72326;DHT22;60278;47.980;18.780;2022-08-25T14:12:47;29.78;60.26
72326;DHT22;60278;47.980;18.780;2022-08-25T14:16:21;29.71;60.54
72326;DHT22;60278;47.980;18.780;2022-08-25T14:19:53;29.86;60.30
72326;DHT22;60278;47.980;18.780;2022-08-25T14:23:27;29.76;59.07
72326;DHT22;60278;47.980;18.780;2022-08-25T14:27:00;29.61;61.28
72326;DHT22;60278;47.980;18.780;2022-08-25T14:30:38;29.72;60.22
72326;DHT22;60278;47.980;18.780;2022-08-25T14:34:20;29.55;59.95
72326;DHT22;60278;47.980;18.780;2022-08-25T14:37:52;29.44;60.16
72326;DHT22;60278;47.980;18.780;2022-08-25T14:41:24;29.50;59.86
72326;DHT22;60278;47.980;18.780;2022-08-25T14:44:56;29.55;60.25
72326;DHT22;60278;47.980;18.780;2022-08-25T14:48:30;29.51;60.13
72326;DHT22;60278;47.980;18.780;2022-08-25T14:52:20;29.52;60.44
72326;DHT22;60278;47.980;18.780;2022-08-25T14:55:51;29.42;60.59
72326;DHT22;60278;47.980;18.780;2022-08-25T14:59:24;29.48;61.01
72326;DHT22;60278;47.980;18.780;2022-08-25T15:02:56;29.37;61.70
72326;DHT22;60278;47.980;18.780;2022-08-25T15:06:28;29.42;59.60
72326;DHT22;60278;47.980;18.780;2022-08-25T15:09:59;29.27;60.76
72326;DHT22;60278;47.980;18.780;2022-08-25T15:13:30;29.28;60.87
72326;DHT22;60278;47.980;18.780;2022-08-25T15:17:01;29.14;61.75
72326;DHT22;60278;47.980;18.780;2022-08-25T15:20:33;29.14;59.50
72326;DHT22;60278;47.980;18.780;2022-08-25T15:24:05;29.10;60.92
72326;DHT22;60278;47.980;18.780;2022-08-25T15:27:37;29.08;60.98
72326;DHT22;60278;47.980;18.780;2022-08-25T15:31:08;29.01;61.36
72326;DHT22;60278;47.980;18.780;2022-08-25T15:34:39;28.84;62.48
72326;DHT22;60278;47.980;18.780;2022-08-25T15:38:10;28.74;61.30
72326;DHT22;60278;47.980;18.780;2022-08-25T15:41:41;28.74;61.64
72326;DHT22;60278;47.980;18.780;2022-08-25T15:45:12;28.66;62.20
72326;DHT22;60278;47.980;18.780;2022-08-25T15:48:45;28.70;61.76
72326;DHT22;60278;47.980;18.780;2022-08-25T15:52:16;28.69;63.54
72326;DHT22;60278;47.980;18.780;2022-08-25T15:55:48;28.59;63.11
72326;DHT22;60278;47.980;18.780;2022-08-25T15:59:19;28.42;62.65
72326;DHT22;60278;47.980;18.780;2022-08-25T16:02:50;28.42;62.58
72326;DHT22;60278;47.980;18.780;2022-08-25T16:06:23;28.43;62.32
72326;DHT22;60278;47.980;18.780;2022-08-25T16:09:55;28.36;62.70
72326;DHT22;60278;47.980;18.780;2022-08-25T16:13:27;28.32;62.62
72326;DHT22;60278;47.980;18.780;2022-08-25T16:16:58;28.32;62.80
72326;DHT22;60278;47.980;18.780;2022-08-25T16:20:31;28.21;63.47
72326;DHT22;60278;47.980;18.780;2022-08-25T16:24:04;28.02;64.40
72326;DHT22;60278;47.980;18.780;2022-08-25T16:27:36;27.98;64.51
72326;DHT22;60278;47.980;18.780;2022-08-25T16:31:08;27.90;64.80
72326;DHT22;60278;47.980;18.780;2022-08-25T16:34:40;27.81;64.36
72326;DHT22;60278;47.980;18.780;2022-08-25T16:38:12;27.71;65.61
72326;DHT22;60278;47.980;18.780;2022-08-25T16:41:43;27.60;66.44
72326;DHT22;60278;47.980;18.780;2022-08-25T16:45:14;27.47;66.90
72326;DHT22;60278;47.980;18.780;2022-08-25T16:48:45;27.49;66.45
72326;DHT22;60278;47.980;18.780;2022-08-25T16:52:16;27.36;67.60
72326;DHT22;60278;47.980;18.780;2022-08-25T16:56:06;27.26;68.04
72326;DHT22;60278;47.980;18.780;2022-08-25T16:59:37;27.12;68.46
72326;DHT22;60278;47.980;18.780;2022-08-25T17:03:08;26.92;70.02
72326;DHT22;60278;47.980;18.780;2022-08-25T17:06:41;26.74;70.73
72326;DHT22;60278;47.980;18.780;2022-08-25T17:10:13;26.59;71.25
72326;DHT22;60278;47.980;18.780;2022-08-25T17:13:46;26.45;71.68
72326;DHT22;60278;47.980;18.780;2022-08-25T17:17:18;26.40;71.87
72326;DHT22;60278;47.980;18.780;2022-08-25T17:20:59;26.31;72.19
72326;DHT22;60278;47.980;18.780;2022-08-25T17:24:31;26.18;72.32
72326;DHT22;60278;47.980;18.780;2022-08-25T17:28:03;26.10;73.38
72326;DHT22;60278;47.980;18.780;2022-08-25T17:31:34;25.94;73.87
72326;DHT22;60278;47.980;18.780;2022-08-25T17:35:09;25.85;74.86
72326;DHT22;60278;47.980;18.780;2022-08-25T17:38:41;25.73;75.74
72326;DHT22;60278;47.980;18.780;2022-08-25T17:42:12;25.53;76.96
72326;DHT22;60278;47.980;18.780;2022-08-25T17:45:45;25.39;80.00
72326;DHT22;60278;47.980;18.780;2022-08-25T17:49:16;25.24;79.75
72326;DHT22;60278;47.980;18.780;2022-08-25T17:52:47;25.10;80.87
72326;DHT22;60278;47.980;18.780;2022-08-25T17:56:21;24.95;80.94
72326;DHT22;60278;47.980;18.780;2022-08-25T17:59:52;24.88;80.25
72326;DHT22;60278;47.980;18.780;2022-08-25T18:03:23;24.83;82.15
72326;DHT22;60278;47.980;18.780;2022-08-25T18:06:55;24.78;82.28
72326;DHT22;60278;47.980;18.780;2022-08-25T18:10:29;24.71;82.52
72326;DHT22;60278;47.980;18.780;2022-08-25T18:14:00;24.70;82.97
72326;DHT22;60278;47.980;18.780;2022-08-25T18:17:32;24.71;82.46
72326;DHT22;60278;47.980;18.780;2022-08-25T18:21:04;24.61;84.03
72326;DHT22;60278;47.980;18.780;2022-08-25T18:24:35;24.56;83.67
72326;DHT22;60278;47.980;18.780;2022-08-25T18:28:07;24.43;85.38
72326;DHT22;60278;47.980;18.780;2022-08-25T18:31:39;24.29;85.04
72326;DHT22;60278;47.980;18.780;2022-08-25T18:35:11;24.19;85.72
72326;DHT22;60278;47.980;18.780;2022-08-25T18:38:42;24.04;86.54
72326;DHT22;60278;47.980;18.780;2022-08-25T18:42:33;23.94;87.34
72326;DHT22;60278;47.980;18.780;2022-08-25T18:46:05;23.81;86.82
72326;DHT22;60278;47.980;18.780;2022-08-25T18:49:36;23.81;87.46
72326;DHT22;60278;47.980;18.780;2022-08-25T18:53:08;23.61;88.71
72326;DHT22;60278;47.980;18.780;2022-08-25T18:56:39;23.50;89.12
72326;DHT22;60278;47.980;18.780;2022-08-25T19:00:12;23.38;89.02
72326;DHT22;60278;47.980;18.780;2022-08-25T19:03:45;23.36;89.50
72326;DHT22;60278;47.980;18.780;2022-08-25T19:07:17;23.30;89.43
72326;DHT22;60278;47.980;18.780;2022-08-25T19:10:51;23.21;89.44
72326;DHT22;60278;47.980;18.780;2022-08-25T19:14:23;23.18;90.06
72326;DHT22;60278;47.980;18.780;2022-08-25T19:17:55;23.08;90.10
72326;DHT22;60278;47.980;18.780;2022-08-25T19:21:26;23.11;89.90
72326;DHT22;60278;47.980;18.780;2022-08-25T19:24:57;23.00;90.59
72326;DHT22;60278;47.980;18.780;2022-08-25T19:28:28;23.04;91.22
72326;DHT22;60278;47.980;18.780;2022-08-25T19:32:00;23.03;89.61
72326;DHT22;60278;47.980;18.780;2022-08-25T19:35:42;22.83;91.76
72326;DHT22;60278;47.980;18.780;2022-08-25T19:39:14;22.62;92.46
72326;DHT22;60278;47.980;18.780;2022-08-25T19:42:46;22.65;92.02
72326;DHT22;60278;47.980;18.780;2022-08-25T19:46:20;22.66;92.48
72326;DHT22;60278;47.980;18.780;2022-08-25T19:49:51;22.63;92.20
72326;DHT22;60278;47.980;18.780;2022-08-25T19:53:22;22.66;92.30
72326;DHT22;60278;47.980;18.780;2022-08-25T19:56:54;22.63;92.35
72326;DHT22;60278;47.980;18.780;2022-08-25T20:00:33;22.59;92.46
72326;DHT22;60278;47.980;18.780;2022-08-25T20:04:04;22.47;92.85
72326;DHT22;60278;47.980;18.780;2022-08-25T20:07:35;22.55;92.24
72326;DHT22;60278;47.980;18.780;2022-08-25T20:11:06;22.51;92.53
72326;DHT22;60278;47.980;18.780;2022-08-25T20:14:38;22.56;92.72
72326;DHT22;60278;47.980;18.780;2022-08-25T20:18:09;22.42;93.25
72326;DHT22;60278;47.980;18.780;2022-08-25T20:21:40;22.29;93.81
72326;DHT22;60278;47.980;18.780;2022-08-25T20:25:22;22.28;93.50
72326;DHT22;60278;47.980;18.780;2022-08-25T20:28:56;22.32;93.28
72326;DHT22;60278;47.980;18.780;2022-08-25T20:32:27;22.29;93.57
72326;DHT22;60278;47.980;18.780;2022-08-25T20:35:59;22.15;94.14
72326;DHT22;60278;47.980;18.780;2022-08-25T20:39:31;22.12;94.70
72326;DHT22;60278;47.980;18.780;2022-08-25T20:43:02;22.00;95.35
72326;DHT22;60278;47.980;18.780;2022-08-25T20:46:34;21.87;95.22
72326;DHT22;60278;47.980;18.780;2022-08-25T20:50:06;21.93;95.26
72326;DHT22;60278;47.980;18.780;2022-08-25T20:53:38;21.87;94.97
72326;DHT22;60278;47.980;18.780;2022-08-25T20:57:11;21.80;95.34
72326;DHT22;60278;47.980;18.780;2022-08-25T21:00:43;21.80;95.48
72326;DHT22;60278;47.980;18.780;2022-08-25T21:04:17;21.90;95.16
72326;DHT22;60278;47.980;18.780;2022-08-25T21:07:48;21.78;95.22
72326;DHT22;60278;47.980;18.780;2022-08-25T21:11:19;21.86;95.24
72326;DHT22;60278;47.980;18.780;2022-08-25T21:14:52;21.83;95.16
72326;DHT22;60278;47.980;18.780;2022-08-25T21:18:23;21.86;95.14
72326;DHT22;60278;47.980;18.780;2022-08-25T21:21:54;21.68;95.68
72326;DHT22;60278;47.980;18.780;2022-08-25T21:25:25;21.70;95.72
72326;DHT22;60278;47.980;18.780;2022-08-25T21:28:58;21.76;95.47
72326;DHT22;60278;47.980;18.780;2022-08-25T21:32:30;21.71;94.50
72326;DHT22;60278;47.980;18.780;2022-08-25T21:36:01;21.70;93.61
72326;DHT22;60278;47.980;18.780;2022-08-25T21:39:32;21.76;92.54
72326;DHT22;60278;47.980;18.780;2022-08-25T21:43:03;21.70;92.87
72326;DHT22;60278;47.980;18.780;2022-08-25T21:46:36;21.66;94.02
72326;DHT22;60278;47.980;18.780;2022-08-25T21:50:10;21.61;93.43
72326;DHT22;60278;47.980;18.780;2022-08-25T21:53:41;21.49;93.08
72326;DHT22;60278;47.980;18.780;2022-08-25T21:57:12;21.43;93.79
72326;DHT22;60278;47.980;18.780;2022-08-25T22:00:43;21.42;93.79
72326;DHT22;60278;47.980;18.780;2022-08-25T22:04:14;21.38;94.07
72326;DHT22;60278;47.980;18.780;2022-08-25T22:07:45;21.33;95.14
72326;DHT22;60278;47.980;18.780;2022-08-25T22:11:17;21.25;95.46
72326;DHT22;60278;47.980;18.780;2022-08-25T22:14:48;21.16;95.85
72326;DHT22;60278;47.980;18.780;2022-08-25T22:18:20;21.13;95.90
72326;DHT22;60278;47.980;18.780;2022-08-25T22:21:52;21.06;96.30
72326;DHT22;60278;47.980;18.780;2022-08-25T22:25:23;21.23;95.32
72326;DHT22;60278;47.980;18.780;2022-08-25T22:28:55;21.18;95.51
72326;DHT22;60278;47.980;18.780;2022-08-25T22:32:26;21.02;96.03
72326;DHT22;60278;47.980;18.780;2022-08-25T22:35:58;20.99;96.01
72326;DHT22;60278;47.980;18.780;2022-08-25T22:39:29;20.95;96.54
72326;DHT22;60278;47.980;18.780;2022-08-25T22:43:03;20.87;96.41
72326;DHT22;60278;47.980;18.780;2022-08-25T22:46:34;20.99;96.03
72326;DHT22;60278;47.980;18.780;2022-08-25T22:50:05;21.10;94.64
72326;DHT22;60278;47.980;18.780;2022-08-25T22:53:38;21.09;94.65
72326;DHT22;60278;47.980;18.780;2022-08-25T22:57:10;21.12;94.16
72326;DHT22;60278;47.980;18.780;2022-08-25T23:00:41;21.13;93.95
72326;DHT22;60278;47.980;18.780;2022-08-25T23:04:12;21.08;94.14
72326;DHT22;60278;47.980;18.780;2022-08-25T23:07:46;21.02;94.42
72326;DHT22;60278;47.980;18.780;2022-08-25T23:11:17;21.03;94.50
72326;DHT22;60278;47.980;18.780;2022-08-25T23:14:48;20.92;94.84
72326;DHT22;60278;47.980;18.780;2022-08-25T23:18:21;20.91;95.01